Time;durP1;ratioP1;P1;durP2;ratioP2;P2;SDS_P1;SDS_P2;PMS_P1;PMS_P2;Temp;Humidity;BMP_temperature;BMP_pressure;BME280_temperature;BME280_humidity;BME280_pressure;Samples;Min_cycle;Max_cycle;Signal;HPM_P1;HPM_P2
2022/01/15 00:02:11;;;;;;;2.10;1.10;;;7.50;99.90;;;;;;5113839;28;20395;-79
2022/01/15 00:04:37;;;;;;;3.15;1.00;;;7.50;99.90;;;;;;5097541;28;20050;-78
2022/01/15 00:07:03;;;;;;;3.08;0.80;;;6.70;99.90;;;;;;5097600;28;20047;-78
2022/01/15 00:09:28;;;;;;;1.67;0.90;;;7.10;99.90;;;;;;5115363;28;20047;-78
2022/01/15 00:11:56;;;;;;;1.60;0.73;;;7.10;99.90;;;;;;5080487;28;20043;-78
2022/01/15 00:14:30;;;;;;;1.52;0.65;;;7.20;99.90;;;;;;5097946;28;20043;-77
2022/01/15 00:17:03;;;;;;;1.25;0.70;;;7.20;99.90;;;;;;5082014;28;20054;-79
2022/01/15 00:19:47;;;;;;;1.10;0.50;;;7.10;99.90;;;;;;5081833;28;20040;-77
2022/01/15 00:22:14;;;;;;;;;;;7.70;99.90;;;;;;5100594;28;20047;-77
2022/01/15 00:24:43;;;;;;;1.25;0.68;;;7.30;99.90;;;;;;5113770;28;19969;-78
2022/01/15 00:27:09;;;;;;;0.95;0.70;;;7.30;99.90;;;;;;5114102;28;20131;-84
2022/01/15 00:29:36;;;;;;;1.17;0.40;;;7.10;99.90;;;;;;5113565;28;20087;-78
2022/01/15 00:32:05;;;;;;;2.03;0.50;;;7.20;99.90;;;;;;5114926;28;20097;-77
2022/01/15 00:34:32;;;;;;;1.35;0.40;;;7.10;99.90;;;;;;5113887;28;20047;-77
2022/01/15 00:36:58;;;;;;;1.02;0.45;;;6.90;99.90;;;;;;5113824;28;20051;-78
2022/01/15 00:39:27;;;;;;;1.10;0.40;;;7.10;99.90;;;;;;5096785;28;20048;-78
2022/01/15 00:41:53;;;;;;;1.05;0.50;;;7.20;99.90;;;;;;5114810;28;20086;-78
2022/01/15 00:44:19;;;;;;;0.98;0.45;;;7.20;99.90;;;;;;5079891;28;20044;-82
2022/01/15 00:46:44;;;;;;;0.85;0.45;;;7.20;99.90;;;;;;5097150;28;20104;-78
2022/01/15 00:49:10;;;;;;;0.95;0.40;;;7.30;99.90;;;;;;5115087;28;20048;-83
2022/01/15 00:51:37;;;;;;;0.50;0.30;;;7.20;99.90;;;;;;5096138;28;20161;-79
2022/01/15 00:54:03;;;;;;;2.72;0.57;;;7.00;99.90;;;;;;5096699;28;20495;-77
2022/01/15 00:56:29;;;;;;;0.80;0.50;;;7.30;99.90;;;;;;5097204;28;20128;-77
2022/01/15 00:58:55;;;;;;;1.25;0.50;;;7.70;99.90;;;;;;5114829;28;20039;-80
2022/01/15 01:01:22;;;;;;;0.93;0.50;;;7.30;99.90;;;;;;5112828;28;20464;-77
2022/01/15 01:03:48;;;;;;;1.15;0.43;;;7.00;99.90;;;;;;5113288;28;20043;-78
2022/01/15 01:06:15;;;;;;;0.50;0.40;;;6.90;99.90;;;;;;5114267;28;20118;-78
2022/01/15 01:08:41;;;;;;;1.30;0.50;;;7.10;99.90;;;;;;5114203;28;20047;-77
2022/01/15 01:11:16;;;;;;;1.23;0.60;;;7.00;99.90;;;;;;5096874;28;20043;-79
2022/01/15 01:24:24;;;;;;;1.48;0.70;;;7.20;99.90;;;;;;5098774;28;20112;-78
2022/01/15 01:32:10;;;;;;;1.77;0.70;;;6.90;99.90;;;;;;5113593;28;20047;-77
2022/01/15 01:34:39;;;;;;;1.67;0.63;;;7.10;99.90;;;;;;5098726;28;20122;-78
2022/01/15 01:37:16;;;;;;;1.33;0.60;;;7.20;99.90;;;;;;5095766;28;20498;-79
2022/01/15 01:45:10;;;;;;;1.63;0.52;;;7.00;99.90;;;;;;5113591;28;20051;-77
2022/01/15 01:47:40;;;;;;;1.02;0.50;;;6.80;99.90;;;;;;5095354;28;20047;-80
2022/01/15 01:50:28;;;;;;;0.80;0.47;;;7.50;99.90;;;;;;5096498;28;20130;-78
2022/01/15 01:52:57;;;;;;;1.10;0.50;;;7.00;99.90;;;;;;5111956;28;20451;-78
2022/01/15 01:55:26;;;;;;;1.05;0.52;;;7.10;99.90;;;;;;5095492;28;20040;-78
2022/01/15 01:57:54;;;;;;;1.27;0.60;;;7.60;99.90;;;;;;5095532;28;20152;-85
2022/01/15 02:00:21;;;;;;;1.45;0.60;;;7.00;99.90;;;;;;5095832;28;20051;-77
2022/01/15 02:02:48;;;;;;;2.65;0.68;;;6.80;99.90;;;;;;5078323;28;20035;-78
2022/01/15 02:05:14;;;;;;;1.25;0.50;;;6.90;99.90;;;;;;5078704;28;20506;-77
2022/01/15 02:07:41;;;;;;;3.08;0.80;;;7.00;99.90;;;;;;5100633;28;20043;-77
2022/01/15 02:10:11;;;;;;;1.50;0.73;;;7.00;99.90;;;;;;5085952;28;20047;-77
2022/01/15 02:12:37;;;;;;;2.13;0.70;;;6.80;99.90;;;;;;5102304;28;20242;-78
2022/01/15 02:15:15;;;;;;;1.67;0.70;;;7.30;99.90;;;;;;5119316;28;20051;-79
2022/01/15 02:17:42;;;;;;;1.52;0.80;;;7.00;99.90;;;;;;5101962;28;20044;-78
2022/01/15 02:25:54;;;;;;;2.97;0.80;;;6.80;99.90;;;;;;5119324;28;20130;-80
2022/01/15 02:28:31;;;;;;;1.10;0.80;;;7.20;99.90;;;;;;5120333;27;20079;-80
2022/01/15 02:31:00;;;;;;;1.33;0.80;;;7.10;99.90;;;;;;5101821;28;20044;-77
2022/01/15 02:33:26;;;;;;;1.52;0.73;;;7.00;99.90;;;;;;5119229;28;20054;-77
2022/01/15 02:35:53;;;;;;;2.08;0.75;;;7.10;99.90;;;;;;5101720;28;20104;-80
2022/01/15 02:38:19;;;;;;;2.05;0.80;;;6.90;99.90;;;;;;5119247;28;20498;-78
2022/01/15 02:40:45;;;;;;;1.83;0.70;;;7.40;99.90;;;;;;5085186;28;20043;-77
2022/01/15 02:43:16;;;;;;;2.42;1.00;;;7.20;99.90;;;;;;5119955;27;20470;-77
2022/01/15 02:45:43;;;;;;;1.48;0.80;;;6.90;99.90;;;;;;5102553;28;20074;-76
2022/01/15 02:48:12;;;;;;;1.88;0.70;;;7.20;99.90;;;;;;5119892;27;20136;-77
2022/01/15 02:50:39;;;;;;;2.28;0.80;;;7.60;99.90;;;;;;5101800;28;20487;-77
2022/01/15 02:53:06;;;;;;;1.98;0.80;;;7.00;99.90;;;;;;5101598;28;20062;-76
2022/01/15 02:55:32;;;;;;;3.53;0.63;;;7.30;99.90;;;;;;5118838;28;20533;-78
2022/01/15 02:57:57;;;;;;;2.65;0.60;;;7.00;99.90;;;;;;5120166;27;20056;-78
2022/01/15 03:00:25;;;;;;;1.88;0.90;;;7.20;99.90;;;;;;5102336;28;20463;-82
2022/01/15 03:02:51;;;;;;;1.52;0.70;;;7.10;99.90;;;;;;5101521;28;20106;-77
2022/01/15 03:05:17;;;;;;;2.28;0.80;;;7.30;99.90;;;;;;5120439;27;20075;-85
2022/01/15 03:07:42;;;;;;;2.75;0.77;;;7.20;99.90;;;;;;5101771;28;20528;-77
2022/01/15 03:10:09;;;;;;;2.22;0.82;;;7.90;99.90;;;;;;5119313;28;20047;-77
2022/01/15 03:12:36;;;;;;;1.67;0.68;;;7.00;99.90;;;;;;5118141;28;20051;-77
2022/01/15 03:15:05;;;;;;;2.60;0.82;;;6.80;99.90;;;;;;5118098;28;20113;-79
2022/01/15 03:17:32;;;;;;;3.22;1.35;;;7.00;99.90;;;;;;5119362;27;20424;-80
2022/01/15 03:19:59;;;;;;;1.40;0.70;;;6.90;99.90;;;;;;5113674;28;20081;-84
2022/01/15 03:22:24;;;;;;;2.38;0.90;;;7.10;99.90;;;;;;5098106;28;20122;-79
2022/01/15 03:24:51;;;;;;;1.17;0.73;;;7.20;99.90;;;;;;5116360;28;20130;-80
2022/01/15 03:27:17;;;;;;;2.45;0.77;;;7.10;99.90;;;;;;5115615;28;20052;-77
2022/01/15 03:29:43;;;;;;;1.58;0.73;;;7.20;99.90;;;;;;5081307;28;20048;-79
2022/01/15 03:32:09;;;;;;;2.22;1.10;;;7.10;99.90;;;;;;5098310;28;20405;-83
2022/01/15 03:34:34;;;;;;;1.85;0.90;;;7.20;99.90;;;;;;5116106;28;20425;-77
2022/01/15 03:37:01;;;;;;;2.05;1.00;;;7.20;99.90;;;;;;5098138;28;20607;-77
2022/01/15 03:39:27;;;;;;;2.35;0.88;;;7.30;99.90;;;;;;5115016;28;20131;-78
2022/01/15 03:41:53;;;;;;;2.55;0.80;;;7.80;99.90;;;;;;5114794;28;20123;-82
2022/01/15 03:44:19;;;;;;;3.78;0.85;;;7.00;99.90;;;;;;5098505;28;20481;-77
2022/01/15 03:46:45;;;;;;;3.25;1.10;;;6.90;99.90;;;;;;5116447;28;20075;-77
2022/01/15 03:49:10;;;;;;;2.83;0.90;;;7.30;99.90;;;;;;5116106;27;20048;-77
2022/01/15 03:51:36;;;;;;;2.65;0.90;;;7.30;99.90;;;;;;5114476;28;20479;-83
2022/01/15 03:54:02;;;;;;;3.58;0.82;;;6.90;99.90;;;;;;5115713;28;20043;-80
2022/01/15 03:56:30;;;;;;;2.00;0.80;;;7.10;99.90;;;;;;5097498;28;20084;-77
2022/01/15 03:58:55;;;;;;;1.88;0.80;;;6.90;99.90;;;;;;5114918;28;20367;-77
2022/01/15 04:01:21;;;;;;;2.75;0.80;;;7.10;99.90;;;;;;5114116;28;20118;-80
2022/01/15 04:03:47;;;;;;;3.45;1.08;;;7.00;99.90;;;;;;5114451;28;20083;-84
2022/01/15 04:06:13;;;;;;;2.05;0.88;;;7.20;99.90;;;;;;5098862;28;20130;-76
2022/01/15 04:08:39;;;;;;;2.55;0.80;;;7.30;99.90;;;;;;5098197;28;20047;-77
2022/01/15 04:11:04;;;;;;;1.80;0.85;;;7.80;99.90;;;;;;5097670;28;20112;-77
2022/01/15 04:13:30;;;;;;;1.92;0.93;;;7.40;99.90;;;;;;5114379;28;20054;-77
2022/01/15 04:15:56;;;;;;;2.42;1.05;;;7.00;99.90;;;;;;5098738;28;20417;-76
2022/01/15 04:18:23;;;;;;;6.47;1.42;;;6.90;99.90;;;;;;5097851;28;20091;-77
2022/01/15 04:20:51;;;;;;;1.80;0.80;;;7.00;99.90;;;;;;5114596;28;20044;-76
2022/01/15 04:23:16;;;;;;;2.25;0.90;;;7.30;99.90;;;;;;5097751;28;20048;-76
2022/01/15 04:25:42;;;;;;;2.38;1.00;;;6.70;99.90;;;;;;5115656;28;20096;-77
2022/01/15 04:28:10;;;;;;;2.90;0.90;;;7.00;99.90;;;;;;5097925;28;20211;-77
2022/01/15 04:30:41;;;;;;;2.80;1.10;;;6.70;99.90;;;;;;5097516;28;20173;-77
2022/01/15 04:33:07;;;;;;;2.92;0.95;;;6.90;99.90;;;;;;5115505;28;20104;-77
2022/01/15 04:35:33;;;;;;;1.83;0.90;;;7.00;99.90;;;;;;5115139;28;20433;-77
2022/01/15 04:38:06;;;;;;;2.22;0.80;;;7.10;99.90;;;;;;5097583;28;20059;-77
2022/01/15 04:40:32;;;;;;;2.90;0.95;;;7.10;99.90;;;;;;5115246;28;20075;-77
2022/01/15 04:42:59;;;;;;;3.80;1.10;;;7.40;99.90;;;;;;5115213;28;20039;-79
2022/01/15 04:45:25;;;;;;;1.50;0.70;;;8.00;99.90;;;;;;5097617;28;20057;-76
2022/01/15 04:47:51;;;;;;;1.85;0.80;;;7.00;99.90;;;;;;5114034;28;20410;-76
2022/01/15 04:50:17;;;;;;;2.03;1.00;;;6.90;99.90;;;;;;5097095;28;20039;-77
2022/01/15 04:52:43;;;;;;;2.72;0.85;;;7.20;99.90;;;;;;5097440;28;20360;-76
2022/01/15 04:55:10;;;;;;;2.97;1.30;;;6.80;99.90;;;;;;5113773;28;20082;-77
2022/01/15 04:57:37;;;;;;;3.90;0.90;;;6.90;99.90;;;;;;5113814;28;20051;-77
2022/01/15 05:00:09;;;;;;;4.97;1.27;;;6.70;99.90;;;;;;5113880;28;20039;-77
2022/01/15 05:02:35;;;;;;;3.70;1.10;;;6.90;99.90;;;;;;5113751;28;20047;-77
2022/01/15 05:05:02;;;;;;;3.92;1.40;;;7.00;99.90;;;;;;5113947;28;20096;-77
2022/01/15 05:07:28;;;;;;;4.28;1.38;;;6.90;99.90;;;;;;5114859;28;20056;-76
2022/01/15 05:09:54;;;;;;;4.10;1.40;;;7.50;99.90;;;;;;5096858;28;20039;-77
2022/01/15 05:15:13;;;;;;;3.15;1.42;;;6.80;99.90;;;;;;5101751;27;20376;-76
2022/01/15 05:17:39;;;;;;;3.50;1.30;;;6.90;99.90;;;;;;5100211;27;20058;-77
2022/01/15 05:20:07;;;;;;;3.45;1.23;;;7.10;99.90;;;;;;5117929;27;20047;-76
2022/01/15 05:22:34;;;;;;;3.28;1.23;;;7.00;99.90;;;;;;5100625;27;20039;-76
2022/01/15 05:25:00;;;;;;;4.20;1.35;;;6.90;99.90;;;;;;5099971;27;20079;-76
2022/01/15 05:27:26;;;;;;;4.80;1.60;;;6.90;99.90;;;;;;5116824;27;20082;-76
2022/01/15 05:29:52;;;;;;;3.90;1.60;;;7.50;99.90;;;;;;5135673;27;20435;-76
2022/01/15 05:32:23;;;;;;;4.85;1.75;;;7.00;99.90;;;;;;5116378;27;20125;-76
2022/01/15 05:34:49;;;;;;;6.20;1.98;;;7.20;99.90;;;;;;5117142;27;20089;-76
2022/01/15 05:37:16;;;;;;;4.15;1.85;;;7.00;99.90;;;;;;5100191;27;20055;-76
2022/01/15 05:39:42;;;;;;;7.25;2.17;;;6.90;99.90;;;;;;5116829;27;20363;-76
2022/01/15 05:42:08;;;;;;;5.45;2.08;;;6.90;99.90;;;;;;5099075;27;20039;-76
2022/01/15 05:44:35;;;;;;;6.38;2.35;;;6.70;99.90;;;;;;5116738;27;20040;-76
2022/01/15 05:47:00;;;;;;;4.28;1.88;;;6.80;99.90;;;;;;5134797;27;20118;-77
2022/01/15 05:49:26;;;;;;;5.15;2.10;;;6.70;99.90;;;;;;5116645;27;20123;-76
2022/01/15 05:51:52;;;;;;;4.80;2.08;;;7.00;99.90;;;;;;5099608;27;20134;-76
2022/01/15 05:54:18;;;;;;;4.32;2.17;;;6.70;99.90;;;;;;5116859;27;20053;-76
2022/01/15 05:56:43;;;;;;;5.65;1.85;;;6.80;99.90;;;;;;5117396;28;20050;-76
2022/01/15 05:59:09;;;;;;;5.20;2.40;;;6.90;99.90;;;;;;5116412;28;20039;-77
2022/01/15 06:01:36;;;;;;;5.05;2.22;;;6.90;99.90;;;;;;5100172;27;20078;-76
2022/01/15 06:04:04;;;;;;;4.60;2.25;;;6.80;99.90;;;;;;5099365;28;20051;-76
2022/01/15 06:06:29;;;;;;;5.32;2.47;;;6.80;99.90;;;;;;5116210;28;20502;-76
2022/01/15 06:08:55;;;;;;;5.32;2.08;;;6.70;99.90;;;;;;5134560;28;20047;-76
2022/01/15 06:11:23;;;;;;;7.05;2.83;;;6.70;99.90;;;;;;5116429;28;20042;-77
2022/01/15 06:13:50;;;;;;;7.22;2.88;;;6.90;99.90;;;;;;5099018;28;20077;-76
2022/01/15 06:16:16;;;;;;;7.03;2.47;;;7.00;99.90;;;;;;5099451;28;20055;-76
2022/01/15 06:18:41;;;;;;;7.90;2.78;;;7.10;99.90;;;;;;5116333;28;20047;-76
2022/01/15 06:21:07;;;;;;;8.52;2.63;;;6.80;99.90;;;;;;5082222;28;20039;-76
2022/01/15 06:23:33;;;;;;;7.68;2.58;;;6.90;99.90;;;;;;5134364;28;20047;-76
2022/01/15 06:25:59;;;;;;;4.88;2.20;;;7.00;99.90;;;;;;5134383;28;20039;-76
2022/01/15 06:28:25;;;;;;;5.40;2.00;;;6.80;99.90;;;;;;5099387;28;20047;-76
2022/01/15 06:30:51;;;;;;;5.72;2.20;;;7.40;99.90;;;;;;5134334;28;20101;-76
2022/01/15 06:33:16;;;;;;;7.90;2.50;;;7.00;99.90;;;;;;5099305;28;20066;-76
2022/01/15 06:35:42;;;;;;;6.15;2.53;;;7.10;99.90;;;;;;5116102;28;20051;-76
2022/01/15 06:38:09;;;;;;;6.95;2.58;;;6.80;99.90;;;;;;5135040;28;20035;-76
2022/01/15 06:40:35;;;;;;;4.90;2.15;;;7.10;99.90;;;;;;5099056;28;20035;-76
2022/01/15 06:43:01;;;;;;;5.53;2.22;;;6.80;99.90;;;;;;5116561;28;20039;-77
2022/01/15 06:45:28;;;;;;;5.45;2.50;;;7.10;99.90;;;;;;5116972;28;20043;-76
2022/01/15 06:47:54;;;;;;;6.90;2.63;;;6.80;99.90;;;;;;5134220;28;20043;-76
2022/01/15 06:50:22;;;;;;;5.97;2.72;;;7.10;99.90;;;;;;5116815;28;20475;-77
2022/01/15 06:52:48;;;;;;;6.25;2.35;;;7.60;99.90;;;;;;5134960;27;20086;-77
2022/01/15 06:55:14;;;;;;;6.15;2.30;;;7.00;99.90;;;;;;5103100;27;20093;-76
2022/01/15 06:57:40;;;;;;;5.97;2.53;;;7.10;99.90;;;;;;5102608;27;20051;-76
2022/01/15 07:00:08;;;;;;;10.05;2.60;;;6.70;99.90;;;;;;5119540;27;20067;-77
2022/01/15 07:02:34;;;;;;;5.50;2.40;;;6.60;99.90;;;;;;5102463;27;20049;-77
2022/01/15 07:05:00;;;;;;;6.55;2.28;;;7.00;99.90;;;;;;5137801;27;20138;-76
2022/01/15 07:07:26;;;;;;;5.78;2.33;;;7.00;99.90;;;;;;5085723;27;20130;-77
2022/01/15 07:09:51;;;;;;;5.97;2.05;;;6.70;99.90;;;;;;5103349;27;20074;-77
2022/01/15 07:12:17;;;;;;;5.95;2.20;;;6.80;99.90;;;;;;5102533;27;20054;-77
2022/01/15 07:14:43;;;;;;;4.25;2.00;;;6.80;99.90;;;;;;5137150;27;20102;-76
2022/01/15 07:17:10;;;;;;;6.20;2.00;;;7.00;99.90;;;;;;5137615;27;20047;-76
2022/01/15 07:19:39;;;;;;;5.40;1.65;;;6.80;99.90;;;;;;5102404;27;20043;-76
2022/01/15 07:22:07;;;;;;;5.03;1.60;;;6.70;99.90;;;;;;5119208;27;20043;-77
2022/01/15 07:24:33;;;;;;;5.82;1.60;;;6.70;99.90;;;;;;5137517;27;20054;-77
2022/01/15 07:26:59;;;;;;;4.65;1.60;;;6.90;99.90;;;;;;5119375;27;20126;-77
2022/01/15 07:29:25;;;;;;;4.47;1.55;;;6.80;99.90;;;;;;5137346;27;20051;-77
2022/01/15 07:31:52;;;;;;;5.00;1.80;;;6.80;99.90;;;;;;5102284;27;20043;-77
2022/01/15 07:34:19;;;;;;;5.53;1.83;;;6.70;99.90;;;;;;5119761;27;20123;-77
2022/01/15 07:36:59;;;;;;;3.05;1.42;;;6.70;99.90;;;;;;5102396;27;20035;-77
2022/01/15 07:39:26;;;;;;;5.72;2.40;;;6.80;99.90;;;;;;5119923;27;20039;-77
2022/01/15 07:41:53;;;;;;;5.32;1.83;;;7.20;99.90;;;;;;5118837;27;20050;-76
2022/01/15 07:44:19;;;;;;;5.13;1.75;;;6.80;99.90;;;;;;5118966;27;20047;-77
2022/01/15 07:46:45;;;;;;;4.03;1.98;;;6.90;99.90;;;;;;5085080;27;20043;-77
2022/01/15 07:49:10;;;;;;;5.22;1.60;;;6.60;99.90;;;;;;5101837;27;20046;-77
2022/01/15 07:51:36;;;;;;;3.92;1.75;;;6.70;99.90;;;;;;5136847;27;20081;-77
2022/01/15 07:54:02;;;;;;;4.32;1.52;;;6.80;99.90;;;;;;5084971;27;20043;-77
2022/01/15 07:56:28;;;;;;;5.30;2.40;;;6.80;99.90;;;;;;5118656;27;20074;-77
2022/01/15 07:58:54;;;;;;;3.55;1.77;;;6.80;99.90;;;;;;5118985;27;20046;-77
2022/01/15 08:01:20;;;;;;;5.07;1.70;;;6.90;99.90;;;;;;5118480;27;20192;-78
2022/01/15 08:03:48;;;;;;;3.83;1.75;;;6.70;99.90;;;;;;5101498;27;20103;-77
2022/01/15 08:06:14;;;;;;;4.40;2.05;;;7.10;99.90;;;;;;5085161;27;20051;-77
2022/01/15 08:08:40;;;;;;;3.70;1.77;;;6.70;99.90;;;;;;5101473;27;20394;-77
2022/01/15 08:11:06;;;;;;;4.85;1.65;;;7.00;99.90;;;;;;5101449;27;20043;-76
2022/01/15 08:13:32;;;;;;;3.85;1.73;;;6.60;99.90;;;;;;5080826;28;20095;-77
2022/01/15 08:16:01;;;;;;;3.53;1.65;;;7.10;99.90;;;;;;5098063;28;20059;-76
2022/01/15 08:18:27;;;;;;;3.33;1.50;;;6.80;99.90;;;;;;5097619;28;20040;-76
2022/01/15 08:20:54;;;;;;;2.95;1.33;;;6.90;99.90;;;;;;5115796;28;20047;-76
2022/01/15 08:23:20;;;;;;;3.85;1.50;;;6.90;99.90;;;;;;5098557;28;20047;-76
2022/01/15 08:25:45;;;;;;;3.20;1.38;;;6.80;99.90;;;;;;5114378;28;20044;-77
2022/01/15 08:28:11;;;;;;;3.10;1.02;;;6.80;99.90;;;;;;5097791;28;20044;-77
2022/01/15 08:30:37;;;;;;;2.70;1.40;;;7.10;99.90;;;;;;5097493;28;20051;-77
2022/01/15 08:33:02;;;;;;;5.35;1.27;;;7.20;99.90;;;;;;5114455;28;20036;-77
2022/01/15 08:35:28;;;;;;;2.53;1.15;;;7.00;99.90;;;;;;5114300;28;20047;-77
2022/01/15 08:37:59;;;;;;;2.25;1.10;;;7.00;99.90;;;;;;5115477;28;20047;-77
2022/01/15 08:40:25;;;;;;;1.48;0.75;;;7.00;99.90;;;;;;5099009;28;20079;-77
2022/01/15 08:42:51;;;;;;;3.35;0.90;;;6.90;99.90;;;;;;5115013;28;20468;-77
2022/01/15 08:45:17;;;;;;;2.28;1.00;;;6.80;99.90;;;;;;5097522;28;20090;-78
2022/01/15 08:47:43;;;;;;;1.90;0.90;;;7.00;99.90;;;;;;5098390;28;20096;-80
2022/01/15 08:50:12;;;;;;;1.25;0.73;;;7.00;99.90;;;;;;5097347;28;20055;-78
2022/01/15 08:52:39;;;;;;;1.35;0.70;;;6.90;99.90;;;;;;5115655;28;20074;-80
2022/01/15 08:55:06;;;;;;;1.52;0.60;;;6.80;99.90;;;;;;5080448;28;20115;-77
2022/01/15 08:57:32;;;;;;;1.80;0.60;;;6.80;99.90;;;;;;5115326;28;20052;-78
2022/01/15 08:59:59;;;;;;;1.25;0.60;;;7.00;99.90;;;;;;5115129;28;20051;-77
2022/01/15 09:02:25;;;;;;;3.38;0.80;;;6.80;99.90;;;;;;5113881;28;20032;-78
2022/01/15 09:04:51;;;;;;;1.85;0.60;;;6.90;99.90;;;;;;5115952;28;20043;-78
2022/01/15 09:07:17;;;;;;;1.85;0.80;;;6.90;99.90;;;;;;5098000;28;20369;-82
2022/01/15 09:09:43;;;;;;;2.22;0.88;;;6.90;99.90;;;;;;5096740;28;20040;-79
2022/01/15 09:12:11;;;;;;;1.92;0.70;;;7.00;99.90;;;;;;5113804;28;20051;-77
2022/01/15 09:14:40;;;;;;;2.08;0.70;;;7.00;99.90;;;;;;5133629;27;20402;-77
2022/01/15 09:17:06;;;;;;;2.72;0.90;;;6.90;99.90;;;;;;5116677;27;20043;-77
2022/01/15 09:19:33;;;;;;;2.28;0.90;;;6.90;99.90;;;;;;5117189;27;20158;-77
2022/01/15 09:21:59;;;;;;;2.35;1.00;;;6.80;99.90;;;;;;5117041;27;20134;-77
2022/01/15 09:24:25;;;;;;;2.50;0.93;;;6.90;99.90;;;;;;5116902;27;20051;-77
2022/01/15 09:32:06;;;;;;;1.75;0.95;;;6.90;99.90;;;;;;5135292;27;20051;-77
2022/01/15 09:34:34;;;;;;;2.17;1.00;;;7.00;99.90;;;;;;5135135;27;20487;-81
2022/01/15 09:37:01;;;;;;;3.55;1.00;;;7.30;99.90;;;;;;5117006;27;20407;-81
2022/01/15 09:39:26;;;;;;;4.05;1.50;;;7.10;99.90;;;;;;5116909;27;20051;-80
2022/01/15 09:41:54;;;;;;;4.85;1.48;;;6.80;99.90;;;;;;5116535;27;20057;-85
2022/01/15 09:44:21;;;;;;;3.42;1.63;;;7.00;99.90;;;;;;5116575;27;20039;-84
2022/01/15 09:46:48;;;;;;;3.35;1.42;;;7.20;99.90;;;;;;5116704;27;20047;-86
2022/01/15 09:49:23;;;;;;;5.00;1.55;;;7.50;99.90;;;;;;5100080;27;20383;-83
2022/01/15 09:51:49;;;;;;;3.17;1.40;;;7.50;99.90;;;;;;5117730;27;20054;-79
2022/01/15 09:54:16;;;;;;;4.10;1.60;;;8.00;99.90;;;;;;5099725;27;20465;-81
2022/01/15 09:56:42;;;;;;;4.50;1.70;;;6.90;99.90;;;;;;5116981;27;20040;-79
2022/01/15 09:59:08;;;;;;;3.28;1.50;;;7.50;99.90;;;;;;5134799;27;20042;-79
2022/01/15 10:01:34;;;;;;;4.38;1.77;;;7.20;99.90;;;;;;5116462;27;20099;-80
2022/01/15 10:04:00;;;;;;;4.43;1.95;;;7.10;99.90;;;;;;5100300;28;20035;-82
2022/01/15 10:06:26;;;;;;;3.67;1.88;;;7.00;99.90;;;;;;5116490;28;20050;-79
2022/01/15 10:09:06;;;;;;;4.63;2.38;;;7.40;99.90;;;;;;5134773;28;20407;-80
2022/01/15 10:11:47;;;;;;;5.40;2.40;;;7.20;99.90;;;;;;5099606;28;20046;-80
2022/01/15 10:14:32;;;;;;;4.88;2.13;;;7.50;99.90;;;;;;5115885;28;20054;-80
2022/01/15 10:17:00;;;;;;;5.20;2.80;;;7.40;99.90;;;;;;5099286;28;20051;-82
2022/01/15 10:19:30;;;;;;;6.07;2.90;;;6.90;99.90;;;;;;5116447;28;20047;-81
2022/01/15 10:22:23;;;;;;;5.65;2.63;;;7.20;99.90;;;;;;5116245;28;20180;-81
2022/01/15 10:24:57;;;;;;;7.60;3.03;;;7.20;99.90;;;;;;5112220;28;20044;-82
2022/01/15 10:27:50;;;;;;;5.20;2.70;;;7.10;99.90;;;;;;5116942;27;20431;-75
2022/01/15 10:30:18;;;;;;;5.97;3.08;;;7.10;99.90;;;;;;5121374;27;20047;-76
2022/01/15 10:33:08;;;;;;;6.28;2.83;;;7.20;99.90;;;;;;5103477;27;20039;-76
2022/01/15 10:35:37;;;;;;;7.22;3.80;;;7.10;99.90;;;;;;5103748;27;20087;-76
2022/01/15 10:38:10;;;;;;;7.05;3.08;;;7.20;99.90;;;;;;5121250;27;20436;-75
2022/01/15 10:40:47;;;;;;;7.22;3.33;;;7.30;99.90;;;;;;5120249;27;20043;-76
2022/01/15 10:43:16;;;;;;;6.45;2.90;;;7.10;99.90;;;;;;5103535;27;20039;-77
2022/01/15 10:45:53;;;;;;;5.45;2.55;;;7.50;99.90;;;;;;5120253;27;20403;-76
2022/01/15 10:48:34;;;;;;;5.45;2.08;;;7.70;99.90;;;;;;5120387;27;20092;-76
2022/01/15 10:51:05;;;;;;;6.07;2.80;;;7.60;99.90;;;;;;5120469;27;20047;-78
2022/01/15 10:53:36;;;;;;;5.03;1.90;;;7.00;99.90;;;;;;5103437;27;20137;-75
2022/01/15 10:56:03;;;;;;;5.85;1.63;;;7.50;99.90;;;;;;5120794;27;20089;-75
2022/01/15 10:58:29;;;;;;;4.65;1.63;;;7.50;99.90;;;;;;5086203;27;20403;-75
2022/01/15 11:00:54;;;;;;;3.38;2.03;;;7.10;99.90;;;;;;5138795;27;20047;-75
2022/01/15 11:03:22;;;;;;;4.03;1.52;;;7.20;99.90;;;;;;5119931;27;20428;-75
2022/01/15 11:05:52;;;;;;;2.45;1.40;;;7.30;99.90;;;;;;5120215;27;20378;-76
2022/01/15 11:08:23;;;;;;;3.28;1.60;;;6.80;99.90;;;;;;5120100;27;20051;-75
2022/01/15 11:10:53;;;;;;;3.15;1.40;;;7.10;99.90;;;;;;5120065;27;20043;-76
2022/01/15 11:13:25;;;;;;;3.67;2.13;;;7.90;99.90;;;;;;5119537;27;20047;-76
2022/01/15 11:15:57;;;;;;;3.30;2.30;;;7.40;99.90;;;;;;5119748;27;20143;-76
2022/01/15 11:18:37;;;;;;;5.18;3.22;;;7.00;99.90;;;;;;5119509;27;20042;-76
2022/01/15 11:21:08;;;;;;;6.57;4.18;;;7.10;99.90;;;;;;5103403;27;20059;-76
2022/01/15 11:23:36;;;;;;;5.00;3.47;;;7.40;99.90;;;;;;5085664;27;20099;-76
2022/01/15 11:26:06;;;;;;;7.30;3.85;;;7.20;99.90;;;;;;5119724;27;20493;-75
2022/01/15 11:28:33;;;;;;;7.55;5.18;;;6.90;99.90;;;;;;5136596;27;20047;-79
2022/01/15 11:31:08;;;;;;;12.57;7.00;;;7.70;99.90;;;;;;5102101;27;20103;-78
2022/01/15 11:33:36;;;;;;;14.07;7.47;;;7.00;99.90;;;;;;5101727;27;20047;-82
2022/01/15 11:36:04;;;;;;;14.80;7.90;;;7.20;99.90;;;;;;5101786;27;20104;-79
2022/01/15 11:38:46;;;;;;;18.45;10.13;;;7.10;99.90;;;;;;5118383;27;20391;-79
2022/01/15 11:41:27;;;;;;;21.35;12.60;;;7.20;99.90;;;;;;5101165;27;20344;-78
2022/01/15 11:44:00;;;;;;;21.63;14.05;;;7.10;99.90;;;;;;5101555;27;20043;-79
2022/01/15 11:46:44;;;;;;;25.35;16.05;;;7.10;99.90;;;;;;5102243;27;20092;-78
2022/01/15 11:49:29;;;;;;;26.42;16.23;;;7.00;99.90;;;;;;5101843;27;20050;-79
2022/01/15 11:52:21;;;;;;;27.70;16.80;;;7.40;99.90;;;;;;5118646;27;20039;-78
2022/01/15 11:55:02;;;;;;;28.92;18.20;;;7.00;99.90;;;;;;5101049;27;20047;-78
2022/01/15 11:57:30;;;;;;;28.13;18.23;;;6.90;99.90;;;;;;5118222;27;20138;-78
2022/01/15 11:59:57;;;;;;;26.23;18.50;;;7.10;99.90;;;;;;5118162;27;20055;-79
2022/01/15 12:02:35;;;;;;;27.35;18.77;;;7.40;99.90;;;;;;5084118;27;20043;-78
2022/01/15 12:05:19;;;;;;;28.10;18.80;;;7.00;99.90;;;;;;5101435;27;20053;-77
2022/01/15 12:07:46;;;;;;;28.30;17.75;;;7.30;99.90;;;;;;5117543;27;20050;-78
2022/01/15 12:10:17;;;;;;;28.08;17.52;;;7.20;99.90;;;;;;5117908;27;20396;-78
2022/01/15 12:12:53;;;;;;;30.55;18.33;;;7.40;99.90;;;;;;5100359;27;20100;-77
2022/01/15 12:15:26;;;;;;;33.13;19.30;;;7.40;99.90;;;;;;5102064;27;20064;-80
2022/01/15 12:18:00;;;;;;;30.83;18.95;;;6.70;99.90;;;;;;5118337;27;20042;-79
2022/01/15 12:20:26;;;;;;;30.92;19.20;;;7.20;99.90;;;;;;5101781;27;20459;-77
2022/01/15 12:22:52;;;;;;;31.42;19.55;;;7.10;99.90;;;;;;5100617;27;20092;-80
2022/01/15 12:25:18;;;;;;;31.45;19.45;;;7.00;99.90;;;;;;5117539;27;20090;-78
2022/01/15 12:28:02;;;;;;;32.00;18.83;;;6.80;99.90;;;;;;5100679;27;20093;-78
2022/01/15 12:30:35;;;;;;;28.60;17.95;;;6.80;99.90;;;;;;5118071;27;20089;-78
2022/01/15 12:33:04;;;;;;;27.27;16.92;;;6.50;99.90;;;;;;5099459;27;20050;-78
2022/01/15 12:35:33;;;;;;;29.38;16.80;;;7.00;99.90;;;;;;5099714;27;20043;-82
2022/01/15 12:38:01;;;;;;;24.48;15.13;;;7.10;99.90;;;;;;5117883;27;20501;-80
2022/01/15 12:40:47;;;;;;;23.55;14.48;;;6.80;99.90;;;;;;5117299;27;20089;-81
2022/01/15 12:43:17;;;;;;;20.30;13.50;;;6.90;99.90;;;;;;5100223;27;20035;-81
2022/01/15 12:45:46;;;;;;;24.98;14.88;;;6.90;99.90;;;;;;5117006;27;20043;-81
2022/01/15 12:48:20;;;;;;;26.52;15.65;;;7.10;99.90;;;;;;5135980;27;20043;-80
2022/01/15 12:50:55;;;;;;;24.08;14.88;;;6.90;99.90;;;;;;5117100;27;20053;-81
2022/01/15 12:53:27;;;;;;;25.15;15.27;;;6.80;99.90;;;;;;5116611;27;20039;-80
2022/01/15 12:55:53;;;;;;;26.52;15.70;;;7.00;99.90;;;;;;5116325;27;20043;-81
2022/01/15 12:58:25;;;;;;;25.63;15.90;;;6.70;99.90;;;;;;5134992;27;20111;-81
2022/01/15 13:00:51;;;;;;;26.58;16.15;;;6.70;99.90;;;;;;5116746;27;20064;-81
2022/01/15 13:03:24;;;;;;;27.60;16.55;;;7.70;99.90;;;;;;5099677;27;20147;-82
2022/01/15 13:06:00;;;;;;;;;;;7.00;99.90;;;;;;5135232;27;20466;-77
2022/01/15 13:08:28;;;;;;;26.30;16.85;;;6.60;99.90;;;;;;5116686;27;20313;-82
2022/01/15 13:11:04;;;;;;;25.65;16.27;;;6.20;99.90;;;;;;5116791;27;20129;-79
2022/01/15 13:13:35;;;;;;;25.88;16.90;;;7.40;99.90;;;;;;5100304;27;20055;-78
2022/01/15 13:16:20;;;;;;;25.58;16.38;;;6.70;99.90;;;;;;5117580;27;20470;-80
2022/01/15 13:18:49;;;;;;;24.08;15.98;;;6.60;99.90;;;;;;5117781;27;20050;-81
2022/01/15 13:21:27;;;;;;;20.55;14.27;;;6.50;99.90;;;;;;5100426;27;20091;-82
2022/01/15 13:23:59;;;;;;;22.45;13.60;;;6.80;99.90;;;;;;5117528;27;20051;-81
2022/01/15 13:26:27;;;;;;;22.98;14.27;;;6.40;99.90;;;;;;5117364;27;20551;-81
2022/01/15 13:29:05;;;;;;;21.98;14.23;;;6.40;99.90;;;;;;5100085;27;20082;-81
2022/01/15 13:31:39;;;;;;;19.10;12.88;;;6.80;99.90;;;;;;5117449;27;20100;-82
2022/01/15 13:34:11;;;;;;;22.27;13.90;;;6.60;99.90;;;;;;5115782;27;20067;-82
2022/01/15 13:36:37;;;;;;;19.73;12.95;;;6.70;99.90;;;;;;5100278;27;20133;-81
2022/01/15 13:39:04;;;;;;;19.08;13.48;;;6.30;99.90;;;;;;5099994;27;20047;-83